createdAt,value
2022-09-01T00:00:30.895Z,45.17
2022-09-01T00:02:59.161Z,45.24
2022-09-01T00:05:27.568Z,45.00
2022-09-01T00:07:57.323Z,45.22
2022-09-01T00:10:25.828Z,45.01
2022-09-01T00:12:54.108Z,45.13
2022-09-01T00:15:29.682Z,45.29
2022-09-01T00:17:58.026Z,45.24
2022-09-01T00:20:26.322Z,45.46
2022-09-01T00:22:55.667Z,45.63
2022-09-01T00:25:25.632Z,45.78
2022-09-01T00:27:53.880Z,45.87
2022-09-01T00:30:22.745Z,46.09
2022-09-01T00:32:50.967Z,45.90
2022-09-01T00:35:20.649Z,46.20
2022-09-01T00:37:48.992Z,45.89
2022-09-01T00:40:19.458Z,46.42
2022-09-01T00:42:49.441Z,46.04
2022-09-01T00:45:19.472Z,46.51
2022-09-01T00:47:50.067Z,46.81
2022-09-01T00:50:20.099Z,46.55
2022-09-01T00:52:52.924Z,47.26
2022-09-01T00:55:26.797Z,47.62
2022-09-01T00:57:57.037Z,46.83
2022-09-01T01:00:27.961Z,47.13
2022-09-01T01:02:57.152Z,47.29
2022-09-01T01:05:28.063Z,47.31
2022-09-01T01:07:57.626Z,47.55
2022-09-01T01:10:26.601Z,47.54
2022-09-01T01:12:56.446Z,47.49
2022-09-01T01:15:24.839Z,47.36
2022-09-01T01:17:53.056Z,47.50
2022-09-01T01:20:40.737Z,47.55
2022-09-01T01:23:17.180Z,47.72
2022-09-01T01:25:50.681Z,47.46
2022-09-01T01:28:21.121Z,47.67
2022-09-01T01:30:52.678Z,47.70
2022-09-01T01:33:22.708Z,47.50
2022-09-01T01:35:52.392Z,47.84
2022-09-01T01:38:23.020Z,47.86
2022-09-01T01:40:54.600Z,48.19
2022-09-01T01:43:24.050Z,48.07
2022-09-01T01:45:54.596Z,47.83
2022-09-01T01:48:25.126Z,47.91
2022-09-01T01:50:55.118Z,48.65
2022-09-01T01:53:24.004Z,48.70
2022-09-01T01:55:53.650Z,48.55
2022-09-01T01:58:24.733Z,48.85
2022-09-01T02:00:55.950Z,49.00
2022-09-01T02:03:26.429Z,48.65
2022-09-01T02:05:56.809Z,48.81
2022-09-01T02:08:26.280Z,49.07
2022-09-01T02:10:57.984Z,48.84
2022-09-01T02:13:31.528Z,48.92
2022-09-01T02:16:03.789Z,48.98
2022-09-01T02:18:36.240Z,49.92
2022-09-01T02:21:15.255Z,49.19
2022-09-01T02:23:44.636Z,49.12
2022-09-01T02:26:16.910Z,49.24
2022-09-01T02:28:55.842Z,49.33
2022-09-01T02:31:25.308Z,49.66
2022-09-01T02:33:54.585Z,49.62
2022-09-01T02:36:25.601Z,49.65
2022-09-01T02:38:55.289Z,49.98
2022-09-01T02:41:30.269Z,49.77
2022-09-01T02:44:02.571Z,50.40
2022-09-01T02:46:31.413Z,50.04
2022-09-01T02:49:00.889Z,50.13
2022-09-01T02:51:29.423Z,50.14
2022-09-01T02:53:58.023Z,50.22
2022-09-01T02:56:28.210Z,50.20
2022-09-01T02:58:57.053Z,50.06
2022-09-01T03:01:28.819Z,50.25
2022-09-01T03:03:58.952Z,50.30
2022-09-01T03:06:28.268Z,50.49
2022-09-01T03:09:00.345Z,50.48
2022-09-01T03:11:32.825Z,50.61
2022-09-01T03:14:01.453Z,50.81
2022-09-01T03:16:30.958Z,50.48
2022-09-01T03:18:59.898Z,50.26
2022-09-01T03:21:28.431Z,50.60
2022-09-01T03:23:58.391Z,50.42
2022-09-01T03:26:27.091Z,50.16
2022-09-01T03:28:56.901Z,50.62
2022-09-01T03:31:29.109Z,50.70
2022-09-01T03:34:00.783Z,50.98
2022-09-01T03:36:30.238Z,50.77
2022-09-01T03:38:58.958Z,51.01
2022-09-01T03:41:29.746Z,50.85
2022-09-01T03:43:59.910Z,50.79
2022-09-01T03:46:36.415Z,51.08
2022-09-01T03:49:07.549Z,51.18
2022-09-01T03:51:39.148Z,51.41
2022-09-01T03:54:07.968Z,51.51
2022-09-01T03:56:36.246Z,51.37
2022-09-01T03:59:07.581Z,51.52
2022-09-01T04:01:38.193Z,51.38
2022-09-01T04:04:08.005Z,51.84
2022-09-01T04:06:38.015Z,51.63
2022-09-01T04:09:06.750Z,51.70
2022-09-01T04:11:36.449Z,51.74
2022-09-01T04:14:06.615Z,52.12
2022-09-01T04:16:54.193Z,52.12
2022-09-01T04:19:26.897Z,52.09
2022-09-01T04:21:57.779Z,52.39
2022-09-01T04:24:28.512Z,52.56
2022-09-01T04:26:58.942Z,52.56
2022-09-01T04:29:28.914Z,52.73
2022-09-01T04:32:02.328Z,52.47
2022-09-01T04:34:37.618Z,52.28
2022-09-01T04:37:10.660Z,52.64
2022-09-01T04:39:39.412Z,52.69
2022-09-01T04:42:09.536Z,52.74
2022-09-01T04:44:40.417Z,52.51
2022-09-01T04:47:12.376Z,52.79
2022-09-01T04:49:40.661Z,52.35
2022-09-01T04:52:08.899Z,53.01
2022-09-01T04:54:40.083Z,52.67
2022-09-01T04:57:08.350Z,52.78
2022-09-01T04:59:37.634Z,52.61
2022-09-01T05:02:09.748Z,53.17
2022-09-01T05:04:45.013Z,52.87
2022-09-01T05:07:15.901Z,52.89
2022-09-01T05:09:45.695Z,53.42
2022-09-01T05:12:16.075Z,53.32
2022-09-01T05:14:48.736Z,53.42
2022-09-01T05:17:18.837Z,53.52
2022-09-01T05:19:50.739Z,53.53
2022-09-01T05:22:22.383Z,53.53
2022-09-01T05:24:54.073Z,53.62
2022-09-01T05:27:24.144Z,53.54
2022-09-01T05:29:54.266Z,53.83
2022-09-01T05:32:26.237Z,53.84
2022-09-01T05:34:54.732Z,54.42
2022-09-01T05:37:23.724Z,54.24
2022-09-01T05:39:53.091Z,54.21
2022-09-01T05:42:21.895Z,54.71
2022-09-01T05:44:52.661Z,54.35
2022-09-01T05:47:21.822Z,54.23
2022-09-01T05:49:53.811Z,54.49
2022-09-01T05:52:26.624Z,54.40
2022-09-01T05:54:55.683Z,54.70
2022-09-01T05:57:34.371Z,54.69
2022-09-01T06:00:10.859Z,54.33
2022-09-01T06:02:40.274Z,54.92
2022-09-01T06:05:11.587Z,54.94
2022-09-01T06:07:42.964Z,55.40
2022-09-01T06:10:13.052Z,55.43
2022-09-01T06:12:41.264Z,55.27
2022-09-01T06:15:16.237Z,55.04
2022-09-01T06:17:46.257Z,55.45
2022-09-01T06:20:18.372Z,55.86
2022-09-01T06:22:47.797Z,55.07
2022-09-01T06:25:17.530Z,55.09
2022-09-01T06:27:46.266Z,55.00
2022-09-01T06:30:23.085Z,54.73
2022-09-01T06:32:52.887Z,54.33
2022-09-01T06:35:25.260Z,53.93
2022-09-01T06:37:54.448Z,53.73
2022-09-01T06:40:22.620Z,52.97
2022-09-01T06:42:53.299Z,52.79
2022-09-01T06:45:23.734Z,51.94
2022-09-01T06:47:59.358Z,51.58
2022-09-01T06:53:35.330Z,50.73
2022-09-01T06:56:04.363Z,49.73
2022-09-01T06:58:33.395Z,50.12
2022-09-01T07:01:06.873Z,49.81
2022-09-01T07:03:35.337Z,49.54
2022-09-01T07:06:07.391Z,49.39
2022-09-01T07:14:19.509Z,47.63
2022-09-01T07:16:51.738Z,47.46
2022-09-01T07:19:51.772Z,46.16
2022-09-01T07:23:02.595Z,46.16
2022-09-01T07:25:13.099Z,45.69
2022-09-01T07:28:01.684Z,45.48
2022-09-01T07:30:31.730Z,44.89
2022-09-01T07:33:41.683Z,44.68
2022-09-01T07:44:17.132Z,42.54
2022-09-01T07:46:46.350Z,42.56
2022-09-01T07:49:33.228Z,41.45
2022-09-01T07:52:03.887Z,41.32
2022-09-01T07:54:34.163Z,40.10
2022-09-01T07:57:02.369Z,41.04
2022-09-01T07:59:31.385Z,40.29
2022-09-01T08:01:59.597Z,39.62
2022-09-01T08:04:31.826Z,39.57
2022-09-01T08:07:01.231Z,39.02
2022-09-01T08:09:37.237Z,39.06
2022-09-01T08:12:08.971Z,38.75
2022-09-01T08:14:37.114Z,38.57
2022-09-01T08:19:55.330Z,37.60
2022-09-01T08:22:25.626Z,37.72
2022-09-01T08:24:54.650Z,37.72
2022-09-01T08:27:24.797Z,36.73
2022-09-01T08:29:52.927Z,35.85
2022-09-01T08:32:22.570Z,36.43
2022-09-01T08:34:50.816Z,35.71
2022-09-01T08:37:19.341Z,35.98
2022-09-01T08:39:48.833Z,35.67
2022-09-01T08:42:32.902Z,34.58
2022-09-01T08:45:11.387Z,34.76
2022-09-01T08:48:08.334Z,33.99
2022-09-01T08:50:27.982Z,34.75
2022-09-01T08:53:09.793Z,34.63
2022-09-01T08:55:43.444Z,34.24
2022-09-01T08:58:14.603Z,34.67
2022-09-01T09:00:51.441Z,32.00
2022-09-01T09:03:40.415Z,32.95
2022-09-01T09:06:16.588Z,32.58
2022-09-01T09:08:58.184Z,33.75
2022-09-01T09:11:40.891Z,33.08
2022-09-01T09:14:16.599Z,32.09
2022-09-01T09:16:51.577Z,32.98
2022-09-01T09:19:26.214Z,32.70
2022-09-01T09:21:56.226Z,32.79
2022-09-01T09:24:37.118Z,32.00
2022-09-01T09:27:09.776Z,32.88
2022-09-01T09:29:39.300Z,32.26
2022-09-01T09:32:44.883Z,31.99
2022-09-01T09:35:21.007Z,31.33
2022-09-01T09:37:49.582Z,31.59
2022-09-01T09:40:20.554Z,30.78
2022-09-01T09:43:09.661Z,29.30
2022-09-01T09:45:42.207Z,30.34
2022-09-01T09:48:29.285Z,29.53
2022-09-01T09:50:57.572Z,30.20
2022-09-01T09:53:29.974Z,29.83
2022-09-01T09:56:02.404Z,29.75
2022-09-01T09:58:37.727Z,28.39
2022-09-01T10:01:17.753Z,29.38
2022-09-01T10:03:50.633Z,29.55
2022-09-01T10:06:33.311Z,30.11
2022-09-01T10:09:03.326Z,29.46
2022-09-01T10:11:41.270Z,28.93
2022-09-01T10:14:35.944Z,29.45
2022-09-01T10:17:17.174Z,29.80
2022-09-01T10:19:54.340Z,29.23
2022-09-01T10:22:23.847Z,29.44
2022-09-01T10:24:52.451Z,29.30
2022-09-01T10:27:24.757Z,27.65
2022-09-01T10:30:18.397Z,28.42
2022-09-01T10:32:55.220Z,28.70
2022-09-01T10:35:29.926Z,27.28
2022-09-01T10:38:00.073Z,28.39
2022-09-01T10:40:43.535Z,28.54
2022-09-01T10:43:38.182Z,27.19
2022-09-01T10:46:50.774Z,27.53
2022-09-01T10:49:30.816Z,28.08
2022-09-01T10:52:08.542Z,28.33
2022-09-01T10:54:58.533Z,28.09
2022-09-01T10:57:53.541Z,26.90
2022-09-01T11:03:54.209Z,27.34
2022-09-01T11:07:14.423Z,27.67
2022-09-01T11:09:45.185Z,29.04
2022-09-01T11:12:48.147Z,28.88
2022-09-01T11:15:39.285Z,29.16
2022-09-01T11:18:17.359Z,29.10
2022-09-01T11:20:48.956Z,29.21
2022-09-01T11:23:27.737Z,28.54
2022-09-01T11:28:49.042Z,28.71
2022-09-01T11:31:32.262Z,27.35
2022-09-01T11:34:19.307Z,28.94
2022-09-01T11:36:56.520Z,27.82
2022-09-01T11:39:45.556Z,27.98
2022-09-01T11:42:20.358Z,28.58
2022-09-01T11:44:54.059Z,28.85
2022-09-01T11:47:26.823Z,28.02
2022-09-01T11:49:58.224Z,28.67
2022-09-01T11:52:31.344Z,28.30
2022-09-01T11:55:01.689Z,27.74
2022-09-01T11:57:33.618Z,28.62
2022-09-01T12:00:03.648Z,28.64
2022-09-01T12:02:36.976Z,28.52
2022-09-01T12:05:26.204Z,28.35
2022-09-01T12:07:54.653Z,28.24
2022-09-01T12:10:32.802Z,28.66
2022-09-01T12:13:06.584Z,29.14
2022-09-01T12:15:40.998Z,29.29
2022-09-01T12:18:19.224Z,29.23
2022-09-01T12:23:25.151Z,28.99
2022-09-01T12:25:56.134Z,29.51
2022-09-01T12:28:26.195Z,29.26
2022-09-01T12:31:00.914Z,28.91
2022-09-01T12:33:30.250Z,28.17
2022-09-01T12:36:17.370Z,29.23
2022-09-01T12:38:45.682Z,29.15
2022-09-01T12:41:39.024Z,28.52
2022-09-01T12:44:30.846Z,28.96
2022-09-01T12:47:01.171Z,28.72
2022-09-01T12:49:37.673Z,28.36
2022-09-01T12:52:25.478Z,28.61
2022-09-01T12:54:57.152Z,29.06
2022-09-01T12:57:29.989Z,28.95
2022-09-01T13:00:10.459Z,28.72
2022-09-01T13:02:40.737Z,29.66
2022-09-01T13:05:28.473Z,28.33
2022-09-01T13:08:01.023Z,29.48
2022-09-01T13:10:34.527Z,28.56
2022-09-01T13:13:04.198Z,29.13
2022-09-01T13:15:32.568Z,27.91
2022-09-01T13:18:00.877Z,28.08
2022-09-01T13:20:29.054Z,28.24
2022-09-01T13:22:57.275Z,28.00
2022-09-01T13:25:26.971Z,28.93
2022-09-01T13:27:55.668Z,28.59
2022-09-01T13:30:28.539Z,28.33
2022-09-01T13:35:46.157Z,28.25
2022-09-01T13:38:16.359Z,28.89
2022-09-01T13:40:45.687Z,27.72
2022-09-01T13:43:15.340Z,28.12
2022-09-01T13:45:45.438Z,27.95
2022-09-01T13:48:16.450Z,27.77
2022-09-01T13:53:34.855Z,27.98
2022-09-01T13:56:03.437Z,28.20
2022-09-01T13:58:31.680Z,27.77
2022-09-01T14:01:01.406Z,27.94
2022-09-01T14:03:32.312Z,27.97
2022-09-01T14:06:00.619Z,27.40
2022-09-01T14:08:29.122Z,27.32
2022-09-01T14:10:57.514Z,27.18
2022-09-01T14:13:26.587Z,27.30
2022-09-01T14:15:55.521Z,27.07
2022-09-01T14:18:36.872Z,26.47
2022-09-01T14:21:05.495Z,26.97
2022-09-01T14:23:33.661Z,26.96
2022-09-01T14:26:01.795Z,26.87
2022-09-01T14:28:30.150Z,27.01
2022-09-01T14:33:27.513Z,27.33
2022-09-01T14:35:55.718Z,27.55
2022-09-01T14:38:24.233Z,27.40
2022-09-01T14:40:52.669Z,27.35
2022-09-01T14:43:22.222Z,27.62
2022-09-01T14:45:50.676Z,27.56
2022-09-01T14:48:20.828Z,27.12
2022-09-01T14:50:51.156Z,26.70
2022-09-01T14:53:19.766Z,26.69
2022-09-01T14:55:50.498Z,27.26
2022-09-01T14:58:20.769Z,26.74
2022-09-01T15:00:49.029Z,26.93
2022-09-01T15:03:21.841Z,26.84
2022-09-01T15:05:52.382Z,25.92
2022-09-01T15:08:20.762Z,26.36
2022-09-01T15:10:49.270Z,26.76
2022-09-01T15:13:17.848Z,26.59
2022-09-01T15:15:46.054Z,27.22
2022-09-01T15:18:14.613Z,26.52
2022-09-01T15:20:51.053Z,26.56
2022-09-01T15:23:22.873Z,26.10
2022-09-01T15:25:53.657Z,26.64
2022-09-01T15:28:22.810Z,26.73
2022-09-01T15:30:51.697Z,26.64
2022-09-01T15:33:22.818Z,26.89
2022-09-01T15:35:51.023Z,27.14
2022-09-01T15:38:27.136Z,27.13
2022-09-01T15:40:58.675Z,26.20
2022-09-01T15:43:28.366Z,26.50
2022-09-01T15:45:58.580Z,26.53
2022-09-01T15:48:28.157Z,27.29
2022-09-01T15:51:18.379Z,27.73
2022-09-01T15:53:47.975Z,27.63
2022-09-01T15:56:18.311Z,27.68
2022-09-01T15:59:00.237Z,27.24
2022-09-01T16:01:31.894Z,27.53
2022-09-01T16:04:01.293Z,27.19
2022-09-01T16:06:29.727Z,27.55
2022-09-01T16:08:59.373Z,27.29
2022-09-01T16:11:28.123Z,27.27
2022-09-01T16:13:57.110Z,27.75
2022-09-01T16:16:41.192Z,27.44
2022-09-01T16:19:22.982Z,26.91
2022-09-01T16:21:55.729Z,27.41
2022-09-01T16:24:25.629Z,27.18
2022-09-01T16:26:53.891Z,27.55
2022-09-01T16:29:29.434Z,27.28
2022-09-01T16:31:58.426Z,27.57
2022-09-01T16:34:28.467Z,28.01
2022-09-01T16:37:05.974Z,27.73
2022-09-01T16:39:47.116Z,27.73
2022-09-01T16:42:26.287Z,27.76
2022-09-01T16:45:05.368Z,27.87
2022-09-01T16:47:45.969Z,28.25
2022-09-01T16:50:25.867Z,28.03
2022-09-01T16:53:20.114Z,28.53
2022-09-01T16:56:00.917Z,28.05
2022-09-01T16:58:42.377Z,27.76
2022-09-01T17:01:30.368Z,28.68
2022-09-01T17:04:21.287Z,28.38
2022-09-01T17:06:58.857Z,27.48
2022-09-01T17:09:33.977Z,28.43
2022-09-01T17:12:23.674Z,27.68
2022-09-01T17:14:58.445Z,28.04
2022-09-01T17:17:34.965Z,27.60
2022-09-01T17:20:06.036Z,28.46
2022-09-01T17:22:37.346Z,28.27
2022-09-01T17:25:09.923Z,28.29
2022-09-01T17:27:51.177Z,29.12
2022-09-01T17:30:20.143Z,28.71
2022-09-01T17:33:01.263Z,28.42
2022-09-01T17:35:38.914Z,29.14
2022-09-01T17:38:20.468Z,29.02
2022-09-01T17:40:59.096Z,29.36
2022-09-01T17:43:45.917Z,29.10
2022-09-01T17:46:20.783Z,29.82
2022-09-01T17:48:53.342Z,29.41
2022-09-01T17:51:29.775Z,29.21
2022-09-01T17:54:06.477Z,29.88
2022-09-01T17:56:42.748Z,29.82
2022-09-01T17:59:23.292Z,29.36
2022-09-01T18:02:05.658Z,29.84
2022-09-01T18:04:58.406Z,30.34
2022-09-01T18:07:42.479Z,30.44
2022-09-01T18:10:17.433Z,30.47
2022-09-01T18:12:46.512Z,30.80
2022-09-01T18:15:21.325Z,31.18
2022-09-01T18:17:55.554Z,31.14
2022-09-01T18:20:29.093Z,31.43
2022-09-01T18:23:04.882Z,31.75
2022-09-01T18:25:39.174Z,32.21
2022-09-01T18:28:07.717Z,32.17
2022-09-01T18:30:54.944Z,32.20
2022-09-01T18:33:28.795Z,32.43
2022-09-01T18:36:19.078Z,32.76
2022-09-01T18:38:54.712Z,33.07
2022-09-01T18:41:35.213Z,33.16
2022-09-01T18:44:13.850Z,33.11
2022-09-01T18:46:56.022Z,33.36
2022-09-01T18:49:31.487Z,33.50
2022-09-01T18:52:12.572Z,33.78
2022-09-01T18:54:48.693Z,33.95
2022-09-01T18:57:21.263Z,34.04
2022-09-01T19:00:03.063Z,34.13
2022-09-01T19:02:51.574Z,34.67
2022-09-01T19:05:35.718Z,34.92
2022-09-01T19:08:11.766Z,34.76
2022-09-01T19:10:45.361Z,34.55
2022-09-01T19:13:28.194Z,34.75
2022-09-01T19:16:13.973Z,34.74
2022-09-01T19:18:48.313Z,35.11
2022-09-01T19:21:22.230Z,34.99
2022-09-01T19:23:56.741Z,34.98
2022-09-01T19:26:27.633Z,35.13
2022-09-01T19:29:00.012Z,35.11
2022-09-01T19:31:30.540Z,35.13
2022-09-01T19:34:05.311Z,35.44
2022-09-01T19:36:39.398Z,35.47
2022-09-01T19:39:11.007Z,35.34
2022-09-01T19:41:42.897Z,35.52
2022-09-01T19:44:20.931Z,36.12
2022-09-01T19:46:52.736Z,35.72
2022-09-01T19:49:34.077Z,36.12
2022-09-01T19:52:09.745Z,35.93
2022-09-01T19:54:48.013Z,36.17
2022-09-01T19:57:24.745Z,36.12
2022-09-01T20:00:02.974Z,35.97
2022-09-01T20:02:34.032Z,35.76
2022-09-01T20:05:10.496Z,36.86
2022-09-01T20:07:45.528Z,36.42
2022-09-01T20:10:23.346Z,36.78
2022-09-01T20:13:06.553Z,36.91
2022-09-01T20:15:44.750Z,36.69
2022-09-01T20:18:24.600Z,37.16
2022-09-01T20:20:54.329Z,36.88
2022-09-01T20:23:28.726Z,37.46
2022-09-01T20:26:04.088Z,37.29
2022-09-01T20:28:36.378Z,37.96
2022-09-01T20:31:12.295Z,38.12
2022-09-01T20:33:46.951Z,38.01
2022-09-01T20:36:26.472Z,38.28
2022-09-01T20:39:16.270Z,37.92
2022-09-01T20:41:49.541Z,38.23
2022-09-01T20:44:27.389Z,38.58
2022-09-01T20:46:55.686Z,38.01
2022-09-01T20:49:24.143Z,38.13
2022-09-01T20:51:58.765Z,37.85
2022-09-01T20:54:34.380Z,38.82
2022-09-01T20:57:12.671Z,38.67
2022-09-01T20:59:46.582Z,38.55
2022-09-01T21:02:29.850Z,39.09
2022-09-01T21:05:09.277Z,39.22
2022-09-01T21:07:47.304Z,39.57
2022-09-01T21:10:22.519Z,39.66
2022-09-01T21:12:54.208Z,39.20
2022-09-01T21:15:44.423Z,39.75
2022-09-01T21:18:30.336Z,39.50
2022-09-01T21:21:03.456Z,39.84
2022-09-01T21:23:33.210Z,39.78
2022-09-01T21:26:02.212Z,39.87
2022-09-01T21:28:31.204Z,39.98
2022-09-01T21:31:00.771Z,40.22
2022-09-01T21:33:32.064Z,39.98
2022-09-01T21:36:02.738Z,40.41
2022-09-01T21:38:32.444Z,40.34
2022-09-01T21:41:01.908Z,40.86
2022-09-01T21:43:34.117Z,40.84
2022-09-01T21:46:02.910Z,41.37
2022-09-01T21:48:32.010Z,40.97
2022-09-01T21:51:00.391Z,41.09
2022-09-01T21:53:28.660Z,40.88
2022-09-01T21:55:58.483Z,41.27
2022-09-01T21:58:27.137Z,40.88
2022-09-01T22:00:56.912Z,40.74
2022-09-01T22:03:25.194Z,40.96
2022-09-01T22:05:53.737Z,40.99
2022-09-01T22:08:22.045Z,40.97
2022-09-01T22:10:53.138Z,41.50
2022-09-01T22:13:25.215Z,41.78
2022-09-01T22:15:55.293Z,41.36
2022-09-01T22:18:24.087Z,41.68
2022-09-01T22:20:52.435Z,41.65
2022-09-01T22:23:20.962Z,41.75
2022-09-01T22:25:49.422Z,42.09
2022-09-01T22:28:17.693Z,42.00
2022-09-01T22:30:49.327Z,41.75
2022-09-01T22:33:18.884Z,42.17
2022-09-01T22:35:49.554Z,41.65
2022-09-01T22:38:19.612Z,42.14
2022-09-01T22:40:49.513Z,42.04
2022-09-01T22:43:18.461Z,42.29
2022-09-01T22:45:49.889Z,42.45
2022-09-01T22:48:20.115Z,42.39
2022-09-01T22:50:49.392Z,42.26
2022-09-01T22:53:19.969Z,42.37
2022-09-01T22:55:50.838Z,42.51
2022-09-01T22:58:19.985Z,42.71
2022-09-01T23:00:53.195Z,42.91
2022-09-01T23:03:22.310Z,42.90
2022-09-01T23:05:51.509Z,42.80
2022-09-01T23:08:19.712Z,42.71
2022-09-01T23:10:48.169Z,43.07
2022-09-01T23:13:17.359Z,43.17
2022-09-01T23:15:45.750Z,43.41
2022-09-01T23:18:15.509Z,43.64
2022-09-01T23:20:43.747Z,43.47
2022-09-01T23:23:12.004Z,43.19
2022-09-01T23:25:43.810Z,43.22
2022-09-01T23:28:14.463Z,42.92
2022-09-01T23:30:45.909Z,43.25
2022-09-01T23:33:15.986Z,43.46
2022-09-01T23:35:44.764Z,43.31
2022-09-01T23:38:13.638Z,44.05
2022-09-01T23:40:43.214Z,43.77
2022-09-01T23:43:11.562Z,43.82
2022-09-01T23:45:41.149Z,43.73
2022-09-01T23:48:09.620Z,43.61
2022-09-01T23:50:44.461Z,44.18
2022-09-01T23:53:13.208Z,44.30
2022-09-01T23:55:44.709Z,44.34
2022-09-01T23:58:13.195Z,44.16
